Cou Falls, Iowa
Current Conditions -  °F | °C
As of 6:52 PM on Thursday 27 Nov 2014 (Local Time) from KCID Reporting Station
Clear Clear  
Wind Chill:   Ceiling: Unl
Heat Index:   Visibility: 10mi
Dew Point:   Wind: 0mph
Humidity: 87%   Direction: NA
Pressure: 30.4"   Gusts: NA
Location:  41.8309°N, 91.7193°W
Report Text: KCID 280052Z 00000KT 10SM CLR M15/M17 A3040 RMK AO2 SLP314 T11501167
Loading
Personal Weather Stations






























Interactive Weather Map New forecast layout! Learn more

10-Day Weather Forecast

Advertisements
Track Severe Weather on mobile